EST weather

Estherville Municipal Airport
Estherville, Iowa, United States

Public forecast

Using degrees Fahrenheit for public forecast. Weather courtesy of forecast.io.

Current aviation weather report (METAR) for Estherville Municipal Airport

Retrieved 2020/04/09 22:52 UTC (1 hour ago):

KEST 092252Z AUTO 33021G31KT 10SM SCT047 BKN060 OVC070 02/M08 A3007 RMK AO2 PK WND 33033/2240 SLP197 T00171078

Closest aviation forecast (TAF) to Estherville Municipal Airport

Closest forecast is Fort Dodge Regional Airport, 56.9 nm (105.3 km) SSE. Retrieved 2020/04/09 18:28 UTC (6 hours ago):

TAF KFOD 091725Z 0918/1018 32020G30KT P6SM VCSH SCT060 FM100000 33014G23KT P6SM FEW110 FM100130 33010KT P6SM FEW200 FM101500 25008KT P6SM FEW250